Time;durP1;ratioP1;P1;durP2;ratioP2;P2;SDS_P1;SDS_P2;PMS_P1;PMS_P2;Temp;Humidity;BMP_temperature;BMP_pressure;BME280_temperature;BME280_humidity;BME280_pressure;Samples;Min_cycle;Max_cycle;Signal;HPM_P1;HPM_P2
2023/06/09 00:01:35;;;;;;;0.50;0.50;;;12.90;99.90;;;;;;5093069;28;20047;-71
2023/06/09 00:04:02;;;;;;;0.50;0.50;;;12.80;99.90;;;;;;5094305;28;20060;-70
2023/06/09 00:06:33;;;;;;;0.60;0.60;;;12.90;99.90;;;;;;5094219;28;20079;-70
2023/06/09 00:08:59;;;;;;;0.50;0.50;;;12.90;99.90;;;;;;5094289;28;20047;-71
2023/06/09 00:11:25;;;;;;;0.60;0.60;;;12.90;99.90;;;;;;5094149;28;20432;-70
2023/06/09 00:13:51;;;;;;;0.60;0.60;;;12.80;99.90;;;;;;5094288;28;20036;-70
2023/06/09 00:16:17;;;;;;;0.60;0.60;;;12.80;99.90;;;;;;5092677;28;20460;-71
2023/06/09 00:18:45;;;;;;;0.70;0.70;;;12.80;99.90;;;;;;5094055;28;20032;-70
2023/06/09 00:21:18;;;;;;;0.50;0.50;;;12.80;99.90;;;;;;5094320;28;20413;-71
2023/06/09 00:23:44;;;;;;;0.60;0.60;;;12.80;99.90;;;;;;5093938;28;20040;-71
2023/06/09 00:26:11;;;;;;;0.50;0.50;;;12.80;99.90;;;;;;5093846;28;20040;-71
2023/06/09 00:28:37;;;;;;;0.50;0.50;;;12.70;99.90;;;;;;5093829;28;20079;-71
2023/06/09 00:31:02;;;;;;;1.40;1.30;;;13.20;99.90;;;;;;5093868;28;20148;-71
2023/06/09 00:33:28;;;;;;;0.50;0.50;;;12.80;99.90;;;;;;5093705;28;20466;-70
2023/06/09 00:35:54;;;;;;;0.50;0.50;;;12.80;99.90;;;;;;5093718;28;20044;-71
2023/06/09 00:38:20;;;;;;;0.50;0.50;;;12.80;99.90;;;;;;5092846;28;20379;-71
2023/06/09 00:40:45;;;;;;;0.50;0.50;;;12.70;99.90;;;;;;5093501;28;20036;-70
2023/06/09 00:43:11;;;;;;;0.53;0.53;;;12.70;99.90;;;;;;5093760;28;20039;-70
2023/06/09 00:45:36;;;;;;;0.60;0.60;;;13.20;99.90;;;;;;5093295;28;20036;-71
2023/06/09 00:48:03;;;;;;;0.50;0.50;;;12.60;99.90;;;;;;5094016;28;20079;-70
2023/06/09 00:50:29;;;;;;;0.50;0.50;;;12.60;99.90;;;;;;5094173;28;20040;-71
2023/06/09 00:52:56;;;;;;;0.50;0.50;;;12.60;99.90;;;;;;5093451;28;20290;-72
2023/06/09 00:55:23;;;;;;;0.50;0.50;;;12.60;99.90;;;;;;5093539;28;20070;-72
2023/06/09 00:57:55;;;;;;;0.50;0.50;;;12.50;99.90;;;;;;5093480;28;20097;-71
2023/06/09 01:00:28;;;;;;;0.50;0.50;;;12.50;99.90;;;;;;5093456;28;20145;-71
2023/06/09 01:03:00;;;;;;;0.50;0.50;;;12.50;99.90;;;;;;5093146;28;20040;-72
2023/06/09 01:05:38;;;;;;;0.80;0.80;;;12.50;99.90;;;;;;5093033;28;20044;-72
2023/06/09 01:08:56;;;;;;;0.50;0.50;;;12.40;99.90;;;;;;5092650;28;20052;-71
2023/06/09 01:11:30;;;;;;;0.50;0.50;;;12.40;99.90;;;;;;5013116;28;20038;-71
2023/06/09 01:14:17;;;;;;;0.45;0.45;;;12.40;99.90;;;;;;5083773;28;20048;-71
2023/06/09 01:17:08;;;;;;;0.40;0.40;;;12.40;99.90;;;;;;5096168;28;20039;-71
2023/06/09 01:19:47;;;;;;;0.40;0.40;;;12.40;99.90;;;;;;5086546;28;20059;-71
2023/06/09 01:22:22;;;;;;;0.40;0.40;;;12.30;99.90;;;;;;5096342;28;20384;-72
2023/06/09 01:25:03;;;;;;;0.40;0.40;;;12.40;99.90;;;;;;5095970;28;20119;-71
2023/06/09 01:27:29;;;;;;;0.40;0.40;;;12.30;99.90;;;;;;5094752;28;20036;-71
2023/06/09 01:29:58;;;;;;;0.40;0.40;;;12.30;99.90;;;;;;5096056;28;20039;-71
2023/06/09 01:32:25;;;;;;;0.45;0.45;;;12.30;99.90;;;;;;5095857;28;20036;-71
2023/06/09 01:34:52;;;;;;;0.40;0.40;;;12.20;99.90;;;;;;5096185;28;20123;-72
2023/06/09 01:37:18;;;;;;;0.93;0.93;;;12.20;99.90;;;;;;5095814;28;20040;-72
2023/06/09 01:39:46;;;;;;;0.87;0.70;;;12.20;99.90;;;;;;5095903;28;20051;-71
2023/06/09 01:42:12;;;;;;;0.40;0.40;;;12.10;99.90;;;;;;5095449;28;20475;-72
2023/06/09 01:44:37;;;;;;;0.40;0.40;;;12.10;99.90;;;;;;5096066;28;20383;-72
2023/06/09 01:47:05;;;;;;;0.60;0.60;;;12.10;99.90;;;;;;5095366;28;20032;-72
2023/06/09 01:49:50;;;;;;;0.50;0.50;;;12.00;99.90;;;;;;5095723;28;20043;-71
2023/06/09 01:52:20;;;;;;;0.40;0.40;;;12.60;99.90;;;;;;5095700;28;20101;-72
2023/06/09 01:54:54;;;;;;;0.40;0.40;;;12.00;99.90;;;;;;5096143;28;20365;-71
2023/06/09 01:57:31;;;;;;;0.40;0.40;;;12.10;99.90;;;;;;5096198;28;20090;-72
2023/06/09 01:59:59;;;;;;;;;;;12.10;99.90;;;;;;5095862;28;20487;-71
2023/06/09 02:02:28;;;;;;;0.40;0.40;;;12.20;99.90;;;;;;5095686;28;19963;-72
2023/06/09 02:04:56;;;;;;;0.40;0.40;;;12.00;99.90;;;;;;5059022;28;1059981;-71
2023/06/09 02:07:22;;;;;;;0.40;0.40;;;12.00;99.90;;;;;;5096811;28;20522;-72
2023/06/09 02:09:49;;;;;;;0.50;0.50;;;12.00;99.90;;;;;;5095606;28;20048;-71
2023/06/09 02:12:15;;;;;;;0.40;0.40;;;12.40;99.90;;;;;;5096502;28;20089;-72
2023/06/09 02:14:42;;;;;;;0.50;0.50;;;12.50;99.90;;;;;;5096442;28;20480;-72
2023/06/09 02:17:11;;;;;;;0.40;0.40;;;12.00;99.90;;;;;;5096473;28;20047;-71
2023/06/09 02:19:39;;;;;;;0.40;0.40;;;12.00;99.90;;;;;;5096332;28;20039;-71
2023/06/09 02:22:05;;;;;;;0.40;0.40;;;12.00;99.90;;;;;;5095876;28;20067;-72
2023/06/09 02:24:31;;;;;;;0.40;0.40;;;12.00;99.90;;;;;;5096127;28;20118;-72
2023/06/09 02:26:57;;;;;;;0.40;0.40;;;11.90;99.90;;;;;;5096224;28;20079;-72
2023/06/09 02:29:24;;;;;;;0.50;0.50;;;11.90;99.90;;;;;;5096142;28;20076;-72
2023/06/09 02:31:50;;;;;;;0.50;0.50;;;11.90;99.90;;;;;;5096140;28;20047;-71
2023/06/09 02:34:16;;;;;;;0.40;0.40;;;11.80;99.90;;;;;;5095969;28;20487;-71
2023/06/09 02:36:42;;;;;;;0.50;0.50;;;11.80;99.90;;;;;;5095919;28;20032;-72
2023/06/09 02:39:09;;;;;;;0.50;0.50;;;11.80;99.90;;;;;;5095947;28;20036;-71
2023/06/09 02:41:34;;;;;;;1.08;1.00;;;11.80;99.90;;;;;;5096070;28;20040;-72
2023/06/09 02:44:00;;;;;;;0.50;0.50;;;11.80;99.90;;;;;;5095834;28;20459;-72
2023/06/09 02:46:26;;;;;;;0.52;0.52;;;11.80;99.90;;;;;;5095802;28;20036;-72
2023/06/09 02:48:51;;;;;;;0.50;0.50;;;11.80;99.90;;;;;;5095609;28;20462;-71
2023/06/09 02:51:17;;;;;;;0.50;0.50;;;11.90;99.90;;;;;;5096116;28;20040;-71
2023/06/09 02:53:43;;;;;;;0.55;0.55;;;11.70;99.90;;;;;;5095592;28;20143;-71
2023/06/09 02:56:10;;;;;;;0.55;0.55;;;11.70;99.90;;;;;;5095632;28;20129;-71
2023/06/09 02:58:35;;;;;;;0.50;0.50;;;11.70;99.90;;;;;;5095500;28;20122;-71
2023/06/09 03:01:02;;;;;;;0.50;0.50;;;11.70;99.90;;;;;;5095533;28;20131;-72
2023/06/09 03:03:28;;;;;;;0.60;0.60;;;11.70;99.90;;;;;;5095083;28;20485;-71
2023/06/09 03:05:55;;;;;;;0.60;0.60;;;11.70;99.90;;;;;;5095398;28;20052;-71
2023/06/09 03:08:20;;;;;;;0.60;0.60;;;11.70;99.90;;;;;;5095348;28;20040;-71
2023/06/09 03:10:46;;;;;;;0.55;0.55;;;11.70;99.90;;;;;;5095588;28;20104;-71
2023/06/09 03:13:11;;;;;;;0.50;0.50;;;11.70;99.90;;;;;;5095117;28;20092;-71
2023/06/09 03:15:40;;;;;;;0.60;0.60;;;11.60;99.90;;;;;;5095185;28;20468;-72
2023/06/09 03:18:07;;;;;;;0.93;0.93;;;11.70;99.90;;;;;;5095028;28;20044;-71
2023/06/09 03:20:34;;;;;;;;;;;11.70;99.90;;;;;;5095162;28;20527;-70
2023/06/09 03:23:00;;;;;;;0.70;0.70;;;11.70;99.90;;;;;;5095083;28;20008;-72
2023/06/09 03:25:25;;;;;;;0.50;0.50;;;11.70;99.90;;;;;;5095038;28;20082;-71
2023/06/09 03:27:53;;;;;;;0.50;0.50;;;11.70;99.90;;;;;;5095212;28;20481;-72
2023/06/09 03:30:18;;;;;;;0.60;0.60;;;12.40;99.90;;;;;;5093859;28;20502;-71
2023/06/09 03:32:44;;;;;;;0.70;0.70;;;11.70;99.90;;;;;;5093951;28;20036;-71
2023/06/09 03:35:10;;;;;;;0.53;0.53;;;11.70;99.90;;;;;;5094928;28;20042;-71
2023/06/09 03:37:35;;;;;;;0.63;0.63;;;12.30;99.90;;;;;;5094953;28;20039;-72
2023/06/09 03:40:01;;;;;;;0.50;0.50;;;12.10;99.90;;;;;;5094409;28;20039;-71
2023/06/09 03:42:26;;;;;;;4.28;0.82;;;11.80;99.90;;;;;;5094756;28;20071;-72
2023/06/09 03:44:57;;;;;;;0.60;0.60;;;12.00;99.90;;;;;;5094658;28;20122;-71
2023/06/09 03:47:23;;;;;;;0.40;0.40;;;11.80;99.90;;;;;;5094599;28;20051;-71
2023/06/09 03:49:48;;;;;;;1.07;1.07;;;11.80;99.90;;;;;;5094511;28;20043;-71
2023/06/09 03:52:14;;;;;;;0.50;0.50;;;11.80;99.90;;;;;;5093451;28;20388;-72
2023/06/09 03:54:40;;;;;;;0.50;0.50;;;11.80;99.90;;;;;;5094591;28;20032;-71
2023/06/09 03:57:06;;;;;;;0.50;0.50;;;11.80;99.90;;;;;;5094474;28;20040;-71
2023/06/09 03:59:32;;;;;;;0.40;0.40;;;11.90;99.90;;;;;;5094452;28;20122;-71
2023/06/09 04:01:57;;;;;;;0.50;0.50;;;11.90;99.90;;;;;;5094402;28;20119;-72
2023/06/09 04:04:23;;;;;;;0.50;0.50;;;11.90;99.90;;;;;;5093973;28;20087;-72
2023/06/09 04:06:48;;;;;;;0.50;0.50;;;12.00;99.90;;;;;;5094279;28;20408;-71
2023/06/09 04:09:15;;;;;;;0.40;0.40;;;12.00;99.90;;;;;;5094198;28;20040;-72
2023/06/09 04:11:41;;;;;;;0.40;0.40;;;12.00;99.90;;;;;;5093148;28;20430;-71
2023/06/09 04:14:07;;;;;;;0.60;0.60;;;12.00;99.90;;;;;;5094162;28;20056;-72
2023/06/09 04:16:33;;;;;;;0.40;0.40;;;12.00;99.90;;;;;;5094125;28;20282;-72
2023/06/09 04:18:58;;;;;;;0.50;0.50;;;12.10;99.90;;;;;;5094084;28;20124;-71
2023/06/09 04:21:24;;;;;;;0.47;0.47;;;12.20;99.90;;;;;;5093816;28;20410;-71
2023/06/09 04:23:50;;;;;;;0.50;0.50;;;12.20;99.90;;;;;;5093899;28;20047;-71
2023/06/09 04:26:16;;;;;;;0.43;0.43;;;12.20;99.90;;;;;;5092879;28;20040;-71
2023/06/09 04:28:42;;;;;;;0.50;0.50;;;12.30;99.90;;;;;;5093817;28;20040;-71
2023/06/09 04:31:08;;;;;;;0.40;0.40;;;12.30;99.90;;;;;;5094021;28;20036;-72
2023/06/09 04:33:36;;;;;;;0.40;0.40;;;12.30;99.90;;;;;;5093673;28;20125;-71
2023/06/09 04:36:03;;;;;;;0.40;0.40;;;12.40;99.90;;;;;;5093838;28;20044;-71
2023/06/09 04:38:32;;;;;;;1.50;1.40;;;12.40;99.90;;;;;;5094239;28;20145;-72
2023/06/09 04:41:01;;;;;;;0.40;0.40;;;12.40;99.90;;;;;;5093935;28;20040;-72
2023/06/09 04:43:28;;;;;;;0.40;0.40;;;12.50;99.90;;;;;;5093840;28;20079;-72
2023/06/09 04:45:55;;;;;;;0.40;0.40;;;12.70;99.90;;;;;;5093531;28;20458;-71
2023/06/09 04:48:21;;;;;;;0.88;0.70;;;12.70;99.90;;;;;;5094262;28;20063;-71
2023/06/09 04:50:47;;;;;;;0.52;0.52;;;12.70;99.90;;;;;;5093777;28;20044;-71
2023/06/09 04:53:15;;;;;;;4.75;2.25;;;12.70;99.90;;;;;;5093824;28;20618;-71
2023/06/09 04:55:43;;;;;;;1.88;1.77;;;12.70;99.90;;;;;;5093567;28;20445;-71
2023/06/09 04:58:09;;;;;;;0.40;0.40;;;12.70;99.90;;;;;;5093770;28;20066;-71
2023/06/09 05:00:35;;;;;;;0.50;0.50;;;13.00;99.90;;;;;;5093571;28;20538;-71
2023/06/09 05:03:01;;;;;;;0.50;0.50;;;12.80;99.90;;;;;;5093620;28;20056;-72
2023/06/09 05:05:27;;;;;;;0.50;0.50;;;12.80;99.90;;;;;;5093684;28;20116;-71
2023/06/09 05:07:52;;;;;;;0.40;0.40;;;12.90;99.90;;;;;;5093707;28;20036;-72
2023/06/09 05:10:18;;;;;;;0.85;0.85;;;13.00;99.90;;;;;;5093403;28;20076;-71
2023/06/09 05:12:43;;;;;;;0.40;0.40;;;13.00;99.90;;;;;;5093352;28;20083;-71
2023/06/09 05:15:10;;;;;;;1.10;0.95;;;13.10;99.90;;;;;;5093562;28;20036;-71
2023/06/09 05:17:41;;;;;;;2.30;0.90;;;13.10;99.90;;;;;;5093488;28;20551;-71
2023/06/09 05:20:08;;;;;;;0.40;0.40;;;13.20;99.90;;;;;;5093401;28;20036;-71
2023/06/09 05:22:35;;;;;;;0.40;0.40;;;13.30;99.90;;;;;;5093090;28;20044;-71
2023/06/09 05:25:06;;;;;;;0.40;0.40;;;13.50;99.90;;;;;;5093535;28;20040;-72
2023/06/09 05:27:32;;;;;;;0.40;0.40;;;13.70;99.90;;;;;;5093391;28;20040;-71
2023/06/09 05:29:57;;;;;;;0.50;0.50;;;13.90;99.90;;;;;;5093309;28;20036;-71
2023/06/09 05:32:23;;;;;;;0.50;0.50;;;14.10;99.90;;;;;;5093137;28;20297;-72
2023/06/09 05:34:49;;;;;;;0.40;0.40;;;14.30;99.90;;;;;;5093542;28;20040;-71
2023/06/09 05:37:15;;;;;;;0.40;0.40;;;14.80;99.90;;;;;;5093234;28;20032;-72
2023/06/09 05:39:41;;;;;;;1.65;1.52;;;14.70;99.90;;;;;;5092180;28;20062;-72
2023/06/09 05:42:10;;;;;;;0.40;0.40;;;15.00;99.90;;;;;;5093337;28;20114;-71
2023/06/09 05:44:36;;;;;;;0.50;0.50;;;15.20;99.90;;;;;;5093147;28;20036;-71
2023/06/09 05:47:02;;;;;;;0.40;0.40;;;15.40;99.90;;;;;;5093828;28;20039;-72
2023/06/09 05:49:28;;;;;;;0.60;0.60;;;15.80;99.90;;;;;;5093265;28;20368;-71
2023/06/09 05:51:53;;;;;;;0.60;0.60;;;16.00;99.90;;;;;;5092898;28;20047;-72
2023/06/09 05:54:20;;;;;;;0.50;0.50;;;16.20;99.90;;;;;;5093076;28;20475;-72
2023/06/09 05:56:48;;;;;;;4.68;0.77;;;16.60;99.90;;;;;;5095175;28;20040;-72
2023/06/09 05:59:14;;;;;;;1.25;1.15;;;16.80;99.90;;;;;;5096796;28;20488;-71
2023/06/09 06:01:41;;;;;;;0.40;0.40;;;17.00;99.90;;;;;;5096819;28;20082;-72
2023/06/09 06:04:07;;;;;;;0.40;0.40;;;17.20;99.90;;;;;;5096678;28;20422;-71
2023/06/09 06:06:33;;;;;;;0.40;0.40;;;17.40;99.90;;;;;;5096413;28;20537;-73
2023/06/09 06:08:58;;;;;;;0.40;0.40;;;17.60;99.90;;;;;;5097186;28;20285;-72
2023/06/09 06:11:25;;;;;;;0.40;0.40;;;17.80;99.90;;;;;;5095389;28;20136;-72
2023/06/09 06:13:50;;;;;;;0.30;0.30;;;17.90;99.90;;;;;;5096474;28;20036;-73
2023/06/09 06:16:16;;;;;;;0.40;0.40;;;18.10;99.90;;;;;;5096498;28;20478;-71
2023/06/09 06:18:42;;;;;;;2.00;0.60;;;18.00;99.90;;;;;;5096475;28;20052;-72
2023/06/09 06:21:07;;;;;;;0.40;0.40;;;18.00;99.90;;;;;;5096787;28;20101;-72
2023/06/09 06:23:33;;;;;;;0.40;0.40;;;18.10;99.90;;;;;;5096368;28;20098;-71
2023/06/09 06:25:59;;;;;;;1.58;1.30;;;18.10;99.90;;;;;;5095407;28;20360;-72
2023/06/09 06:28:25;;;;;;;0.40;0.40;;;18.30;99.90;;;;;;5096210;28;20042;-72
2023/06/09 06:30:50;;;;;;;0.97;0.53;;;18.40;99.90;;;;;;5095931;28;20105;-71
2023/06/09 06:33:16;;;;;;;0.63;0.63;;;18.50;99.90;;;;;;5096159;28;20032;-72
2023/06/09 06:35:42;;;;;;;0.90;0.85;;;18.60;99.90;;;;;;5096507;28;20325;-72
2023/06/09 06:38:08;;;;;;;0.60;0.60;;;18.50;99.90;;;;;;5096281;28;20047;-72
2023/06/09 06:40:33;;;;;;;0.50;0.50;;;18.60;99.90;;;;;;5096046;28;20039;-72
2023/06/09 06:42:59;;;;;;;0.50;0.50;;;18.70;99.90;;;;;;5095901;28;20173;-72
2023/06/09 06:45:26;;;;;;;0.50;0.50;;;18.60;99.90;;;;;;5094958;28;20039;-71
2023/06/09 06:47:53;;;;;;;0.40;0.40;;;18.70;99.90;;;;;;5095835;28;20052;-72
2023/06/09 06:50:18;;;;;;;0.50;0.50;;;18.80;99.90;;;;;;5096176;28;20132;-72
2023/06/09 06:52:45;;;;;;;0.63;0.63;;;19.00;99.90;;;;;;5095849;28;20071;-72
2023/06/09 06:55:11;;;;;;;0.85;0.85;;;19.10;99.90;;;;;;5095768;28;20047;-72
2023/06/09 06:57:40;;;;;;;0.40;0.40;;;19.30;99.90;;;;;;5094549;28;20044;-71
2023/06/09 07:00:16;;;;;;;0.30;0.30;;;19.40;99.90;;;;;;5095415;28;20048;-71
2023/06/09 07:02:44;;;;;;;0.30;0.30;;;19.40;99.90;;;;;;5095677;28;20036;-72
2023/06/09 07:05:10;;;;;;;0.30;0.30;;;19.50;99.90;;;;;;5095344;28;20084;-72
2023/06/09 07:07:36;;;;;;;0.30;0.30;;;19.60;99.90;;;;;;5094277;28;20071;-69
2023/06/09 07:10:02;;;;;;;0.30;0.30;;;19.70;99.90;;;;;;5095512;28;20036;-71
2023/06/09 07:12:28;;;;;;;0.90;0.90;;;19.80;99.90;;;;;;5095028;28;20036;-72
2023/06/09 07:14:55;;;;;;;0.30;0.30;;;20.00;99.90;;;;;;5095389;28;20274;-71
2023/06/09 07:17:21;;;;;;;0.30;0.30;;;20.10;99.90;;;;;;5095256;28;20083;-71
2023/06/09 07:19:46;;;;;;;0.30;0.30;;;20.30;99.90;;;;;;5095307;28;20087;-71
2023/06/09 07:22:12;;;;;;;0.30;0.30;;;20.40;99.90;;;;;;5095319;28;20044;-71
2023/06/09 07:24:37;;;;;;;0.30;0.30;;;20.60;99.90;;;;;;5095182;28;20040;-70
2023/06/09 07:27:05;;;;;;;0.40;0.40;;;20.80;99.90;;;;;;5095069;28;20376;-72
2023/06/09 07:29:31;;;;;;;3.15;2.95;;;20.80;99.90;;;;;;5095158;28;20092;-71
2023/06/09 07:31:56;;;;;;;0.50;0.50;;;20.90;99.90;;;;;;5095353;28;20032;-71
2023/06/09 07:34:27;;;;;;;0.50;0.50;;;20.80;99.90;;;;;;5095100;28;20175;-71
2023/06/09 07:36:53;;;;;;;0.90;0.77;;;20.90;99.90;;;;;;5095304;28;20118;-71
2023/06/09 07:39:19;;;;;;;0.40;0.40;;;21.10;99.90;;;;;;5094879;28;20475;-71
2023/06/09 07:41:45;;;;;;;0.40;0.40;;;21.30;99.90;;;;;;5094889;28;20054;-71
2023/06/09 07:44:10;;;;;;;0.30;0.30;;;21.40;99.90;;;;;;5094913;28;20039;-71
2023/06/09 07:46:36;;;;;;;0.30;0.30;;;21.50;99.90;;;;;;5094777;28;20043;-71
2023/06/09 07:49:02;;;;;;;0.30;0.30;;;21.60;99.90;;;;;;5094863;28;20044;-72
2023/06/09 07:51:29;;;;;;;0.30;0.30;;;21.70;99.90;;;;;;5094856;28;20048;-71
2023/06/09 07:53:54;;;;;;;0.30;0.30;;;21.80;99.90;;;;;;5094640;28;20035;-72
2023/06/09 07:56:21;;;;;;;0.50;0.50;;;22.00;99.90;;;;;;5094346;28;20105;-71
2023/06/09 07:58:46;;;;;;;1.30;0.70;;;22.10;99.90;;;;;;5094307;28;20487;-71
2023/06/09 08:01:12;;;;;;;0.30;0.30;;;22.30;99.90;;;;;;5094517;28;20044;-71
2023/06/09 08:03:38;;;;;;;0.30;0.30;;;22.40;99.90;;;;;;5094288;28;20048;-71
2023/06/09 08:06:04;;;;;;;0.30;0.30;;;22.40;99.90;;;;;;5093566;28;20135;-70
2023/06/09 08:08:31;;;;;;;0.47;0.47;;;22.40;99.90;;;;;;5094415;28;20036;-70
2023/06/09 08:10:58;;;;;;;0.30;0.30;;;22.50;99.90;;;;;;5094317;28;20043;-70
2023/06/09 08:13:24;;;;;;;2.40;1.20;;;22.60;99.90;;;;;;5094034;28;20036;-71
2023/06/09 08:15:50;;;;;;;0.98;0.77;;;22.80;99.90;;;;;;5094200;28;20416;-70
2023/06/09 08:18:16;;;;;;;0.40;0.40;;;23.00;99.90;;;;;;5094215;28;20121;-70
2023/06/09 08:20:41;;;;;;;0.30;0.30;;;23.10;99.90;;;;;;5093817;28;20474;-71
2023/06/09 08:23:10;;;;;;;0.40;0.40;;;23.20;99.90;;;;;;5093879;28;20093;-71
2023/06/09 08:25:35;;;;;;;0.30;0.30;;;23.40;99.90;;;;;;5094064;28;20032;-71
2023/06/09 08:28:01;;;;;;;0.67;0.67;;;23.60;99.90;;;;;;5094041;28;20039;-71
2023/06/09 08:30:27;;;;;;;0.30;0.30;;;23.80;99.90;;;;;;5094152;28;20101;-71
2023/06/09 08:32:53;;;;;;;0.30;0.30;;;24.00;99.90;;;;;;5093683;28;20032;-71
2023/06/09 08:35:18;;;;;;;2.80;1.60;;;24.10;99.90;;;;;;5093950;28;20093;-70
2023/06/09 08:37:44;;;;;;;0.30;0.30;;;24.00;99.90;;;;;;5093987;28;20043;-72
2023/06/09 08:40:11;;;;;;;0.30;0.30;;;24.10;99.90;;;;;;5093805;28;20043;-71
2023/06/09 08:42:38;;;;;;;0.30;0.30;;;24.10;99.90;;;;;;5093847;28;20361;-71
2023/06/09 08:45:05;;;;;;;0.30;0.30;;;24.30;99.90;;;;;;5093791;28;20046;-71
2023/06/09 08:47:33;;;;;;;0.20;0.20;;;24.30;99.90;;;;;;5093794;28;20055;-71
2023/06/09 08:49:59;;;;;;;1.20;0.75;;;24.40;99.90;;;;;;5093827;28;20086;-71
2023/06/09 08:52:27;;;;;;;0.30;0.30;;;24.50;99.90;;;;;;5093610;28;20142;-72
2023/06/09 08:54:54;;;;;;;0.30;0.30;;;24.60;99.90;;;;;;5092043;28;20565;-71
2023/06/09 08:57:20;;;;;;;0.82;0.82;;;24.70;99.90;;;;;;5093490;28;20043;-70
2023/06/09 08:59:52;;;;;;;0.55;0.47;;;24.80;99.90;;;;;;5093600;28;20062;-71
2023/06/09 09:02:18;;;;;;;0.30;0.30;;;24.90;99.90;;;;;;5093544;28;20043;-71
2023/06/09 09:04:44;;;;;;;0.30;0.30;;;25.00;99.90;;;;;;5093325;28;20492;-71
2023/06/09 09:07:12;;;;;;;0.65;0.65;;;25.10;99.90;;;;;;5093527;28;20043;-71
2023/06/09 09:09:39;;;;;;;0.50;0.50;;;25.30;99.90;;;;;;5093547;28;20091;-72
2023/06/09 09:12:05;;;;;;;0.30;0.30;;;25.40;99.90;;;;;;5093466;28;20043;-72
2023/06/09 09:14:31;;;;;;;;;;;25.60;99.90;;;;;;5094600;28;20040;-71
2023/06/09 09:16:56;;;;;;;0.30;0.30;;;25.70;99.90;;;;;;5093791;28;20244;-71
2023/06/09 09:19:26;;;;;;;0.30;0.30;;;25.70;99.90;;;;;;5093570;28;20036;-72
2023/06/09 09:21:56;;;;;;;0.30;0.30;;;25.70;99.90;;;;;;5093137;28;20036;-71
2023/06/09 09:24:29;;;;;;;0.40;0.40;;;25.80;99.90;;;;;;5093431;28;20067;-73
2023/06/09 09:26:56;;;;;;;0.32;0.32;;;25.90;99.90;;;;;;5093822;28;20040;-71
2023/06/09 09:29:26;;;;;;;0.65;0.65;;;26.00;99.90;;;;;;5092311;28;20127;-71
2023/06/09 09:31:55;;;;;;;0.30;0.30;;;26.00;99.90;;;;;;5095572;28;20048;-71
2023/06/09 09:34:21;;;;;;;0.30;0.30;;;25.90;99.90;;;;;;5097333;28;20036;-72
2023/06/09 09:36:54;;;;;;;0.73;0.70;;;26.00;99.90;;;;;;5096099;28;20063;-72
2023/06/09 09:39:25;;;;;;;1.33;0.38;;;26.10;99.90;;;;;;5097650;28;20046;-72
2023/06/09 09:42:07;;;;;;;0.40;0.40;;;26.20;99.90;;;;;;5096981;28;20040;-72
2023/06/09 09:44:43;;;;;;;0.30;0.30;;;26.40;99.90;;;;;;5097056;28;20376;-72
2023/06/09 09:47:13;;;;;;;0.30;0.30;;;26.50;99.90;;;;;;5097119;28;20131;-72
2023/06/09 09:49:56;;;;;;;0.40;0.40;;;26.70;99.90;;;;;;5097050;28;20055;-71
2023/06/09 09:52:29;;;;;;;0.30;0.30;;;27.00;99.90;;;;;;5097202;28;20043;-72
2023/06/09 09:54:58;;;;;;;0.35;0.35;;;27.10;99.30;;;;;;5097164;28;20086;-71
2023/06/09 09:57:28;;;;;;;1.67;1.52;;;27.30;99.40;;;;;;5096840;28;20123;-71
2023/06/09 09:59:54;;;;;;;0.30;0.30;;;27.30;98.90;;;;;;5097102;28;20422;-70
2023/06/09 10:02:26;;;;;;;0.30;0.30;;;27.30;99.40;;;;;;5096839;28;20032;-71
2023/06/09 10:04:56;;;;;;;0.35;0.35;;;27.40;98.80;;;;;;5097052;28;20318;-72
2023/06/09 10:07:25;;;;;;;0.38;0.38;;;27.50;99.20;;;;;;5096809;28;20051;-71
2023/06/09 10:09:51;;;;;;;0.20;0.20;;;27.60;97.60;;;;;;5096728;28;20043;-72
2023/06/09 10:12:20;;;;;;;;;;;27.70;98.50;;;;;;5097315;28;20479;-71
2023/06/09 10:14:49;;;;;;;0.30;0.30;;;27.80;97.80;;;;;;5096875;28;19986;-71
2023/06/09 10:17:20;;;;;;;0.40;0.40;;;27.80;96.90;;;;;;5095399;28;20042;-72
2023/06/09 10:19:48;;;;;;;0.30;0.30;;;28.00;97.70;;;;;;5096730;28;20048;-71
2023/06/09 10:22:14;;;;;;;0.60;0.60;;;28.10;96.70;;;;;;5096406;28;20040;-72
2023/06/09 10:24:40;;;;;;;0.40;0.40;;;28.20;96.50;;;;;;5096448;28;20047;-72
2023/06/09 10:27:07;;;;;;;0.30;0.30;;;28.10;96.20;;;;;;5096317;28;20090;-71
2023/06/09 10:29:33;;;;;;;0.73;0.73;;;28.30;96.40;;;;;;5096328;28;20076;-72
2023/06/09 10:31:59;;;;;;;0.30;0.30;;;28.40;96.10;;;;;;5096511;28;20086;-71
2023/06/09 10:34:27;;;;;;;0.40;0.40;;;28.40;95.70;;;;;;5096166;28;20486;-72
2023/06/09 10:36:54;;;;;;;0.20;0.20;;;28.50;95.10;;;;;;5096230;28;20081;-72
2023/06/09 10:39:23;;;;;;;1.58;0.57;;;28.70;95.60;;;;;;5096112;28;20036;-73
2023/06/09 10:42:10;;;;;;;1.00;1.00;;;28.70;95.10;;;;;;5095814;28;20040;-73
2023/06/09 10:44:57;;;;;;;0.22;0.22;;;28.80;95.10;;;;;;5095804;28;20482;-72
2023/06/09 10:47:48;;;;;;;0.73;0.57;;;29.00;95.00;;;;;;5095673;28;20602;-72
2023/06/09 10:50:25;;;;;;;0.65;0.55;;;29.00;94.10;;;;;;5095898;28;20488;-72
2023/06/09 10:52:56;;;;;;;0.30;0.30;;;29.10;94.40;;;;;;5095822;28;20081;-73
2023/06/09 10:55:27;;;;;;;0.30;0.30;;;29.20;93.60;;;;;;5095776;28;20104;-71
2023/06/09 10:57:53;;;;;;;0.30;0.30;;;29.20;93.90;;;;;;5095850;28;20046;-71
2023/06/09 11:00:20;;;;;;;0.30;0.30;;;29.20;93.40;;;;;;5095605;28;20161;-73
2023/06/09 11:03:09;;;;;;;0.30;0.30;;;29.30;93.10;;;;;;5095675;28;20048;-73
2023/06/09 11:05:57;;;;;;;4.95;2.05;;;29.20;92.90;;;;;;5084402;28;20073;-72
2023/06/09 11:08:23;;;;;;;0.47;0.43;;;29.30;93.60;;;;;;5095609;28;20127;-72
2023/06/09 11:10:48;;;;;;;1.00;0.83;;;29.40;93.60;;;;;;5095193;28;20079;-72
2023/06/09 11:13:38;;;;;;;0.60;0.60;;;29.60;93.50;;;;;;5095402;28;20127;-71
2023/06/09 11:16:04;;;;;;;0.30;0.30;;;29.60;92.80;;;;;;5095031;28;20480;-72
2023/06/09 11:18:30;;;;;;;0.55;0.55;;;29.50;92.50;;;;;;5094275;28;20032;-72
2023/06/09 11:21:10;;;;;;;0.75;0.75;;;29.40;92.60;;;;;;5095285;28;20040;-72
2023/06/09 11:23:55;;;;;;;0.30;0.30;;;29.50;92.70;;;;;;5095234;28;20051;-72
2023/06/09 11:26:22;;;;;;;0.82;0.82;;;29.60;92.30;;;;;;5095208;28;20072;-73
2023/06/09 11:28:48;;;;;;;1.75;0.73;;;29.70;92.10;;;;;;5095187;28;20044;-71
2023/06/09 11:31:15;;;;;;;0.30;0.30;;;29.80;92.60;;;;;;5094838;28;20503;-71
2023/06/09 11:33:49;;;;;;;0.20;0.20;;;29.80;92.40;;;;;;5094983;28;20054;-71
2023/06/09 11:36:19;;;;;;;0.20;0.20;;;30.00;92.70;;;;;;5095482;28;20044;-72
2023/06/09 11:38:49;;;;;;;0.40;0.40;;;30.10;92.30;;;;;;5094996;28;20081;-72
2023/06/09 11:41:19;;;;;;;0.20;0.20;;;30.10;91.20;;;;;;5095039;28;20122;-72
2023/06/09 11:43:55;;;;;;;0.30;0.30;;;30.00;91.10;;;;;;5095201;28;20034;-72
2023/06/09 11:46:21;;;;;;;0.47;0.47;;;30.00;91.40;;;;;;5094788;28;20036;-72
2023/06/09 11:48:59;;;;;;;0.50;0.50;;;30.10;92.00;;;;;;5094735;28;20081;-72
2023/06/09 11:51:25;;;;;;;0.50;0.50;;;30.10;92.10;;;;;;5094182;28;20036;-73
2023/06/09 11:53:51;;;;;;;0.30;0.30;;;30.00;91.60;;;;;;5093945;28;20545;-72
2023/06/09 11:56:17;;;;;;;0.47;0.47;;;30.10;92.00;;;;;;5094654;28;20331;-72
2023/06/09 11:58:42;;;;;;;0.20;0.20;;;30.20;91.60;;;;;;5094603;28;20040;-71
2023/06/09 12:01:08;;;;;;;0.40;0.40;;;30.40;92.10;;;;;;5094598;28;20127;-72
2023/06/09 12:03:36;;;;;;;0.30;0.30;;;30.50;91.50;;;;;;5094367;28;20343;-71
2023/06/09 12:06:02;;;;;;;0.30;0.30;;;30.60;91.10;;;;;;5094414;28;20089;-72
2023/06/09 12:08:27;;;;;;;0.30;0.30;;;30.70;91.20;;;;;;5094281;28;20043;-72
2023/06/09 12:10:53;;;;;;;0.40;0.40;;;30.80;90.60;;;;;;5094460;28;20058;-72
2023/06/09 12:13:19;;;;;;;0.35;0.35;;;30.80;90.60;;;;;;5094096;28;20122;-72
2023/06/09 12:15:51;;;;;;;0.70;0.70;;;31.00;90.90;;;;;;5094108;28;20040;-71
2023/06/09 12:18:17;;;;;;;0.30;0.30;;;30.90;90.60;;;;;;5093449;28;20079;-72
2023/06/09 12:20:46;;;;;;;0.52;0.52;;;31.00;90.40;;;;;;5094288;28;20094;-71
2023/06/09 12:23:14;;;;;;;0.30;0.30;;;30.90;90.00;;;;;;5094381;28;20081;-72
2023/06/09 12:25:48;;;;;;;0.75;0.75;;;30.70;90.00;;;;;;5094059;28;20067;-72
2023/06/09 12:28:26;;;;;;;0.30;0.30;;;30.80;90.40;;;;;;5094045;28;20040;-72
2023/06/09 12:30:53;;;;;;;0.22;0.22;;;30.80;90.00;;;;;;5094542;28;20084;-71
2023/06/09 12:33:24;;;;;;;0.40;0.40;;;30.90;90.80;;;;;;5093853;28;20083;-72
2023/06/09 12:35:52;;;;;;;0.30;0.30;;;31.00;89.30;;;;;;5094108;28;20044;-72
2023/06/09 12:38:22;;;;;;;0.40;0.40;;;31.10;90.50;;;;;;5093939;28;20044;-72
2023/06/09 12:40:55;;;;;;;0.90;0.68;;;31.00;89.40;;;;;;5093937;28;20071;-73
2023/06/09 12:43:25;;;;;;;6.13;1.38;;;31.10;89.30;;;;;;5094219;28;20036;-73
2023/06/09 12:45:57;;;;;;;1.17;0.50;;;31.10;88.10;;;;;;5094021;28;20123;-72
2023/06/09 12:48:24;;;;;;;0.60;0.60;;;31.20;90.00;;;;;;5093977;28;20082;-72
2023/06/09 12:50:50;;;;;;;;;;;31.20;89.40;;;;;;5094179;28;20044;-72
2023/06/09 12:53:16;;;;;;;0.38;0.38;;;31.20;88.40;;;;;;5093544;28;20050;-72